Time;durP1;ratioP1;P1;durP2;ratioP2;P2;SDS_P1;SDS_P2;PMS_P1;PMS_P2;Temp;Humidity;BMP_temperature;BMP_pressure;BME280_temperature;BME280_humidity;BME280_pressure;Samples;Min_cycle;Max_cycle;Signal;HPM_P1;HPM_P2
2023/12/03 00:00:02;;;;;;;48.63;24.92;;;;;;;;;;5019643;28;20109;-64
2023/12/03 00:02:28;;;;;;;51.22;24.77;;;;;;;;;;5001876;28;20026;-64
2023/12/03 00:04:55;;;;;;;51.08;24.88;;;;;;;;;;5016254;28;20030;-64
2023/12/03 00:07:22;;;;;;;46.78;24.73;;;;;;;;;;5012944;28;20152;-63
2023/12/03 00:09:48;;;;;;;50.00;24.90;;;;;;;;;;5010549;28;20094;-64
2023/12/03 00:12:14;;;;;;;50.15;25.27;;;;;;;;;;5018246;28;20073;-66
2023/12/03 00:14:40;;;;;;;53.65;26.17;;;;;;;;;;5021473;28;20454;-65
2023/12/03 00:17:06;;;;;;;52.83;26.25;;;;;;;;;;5019311;28;20171;-65
2023/12/03 00:19:32;;;;;;;56.30;26.83;;;;;;;;;;5020991;28;20611;-64
2023/12/03 00:21:58;;;;;;;35.47;17.10;;;;;;;;;;5021785;28;20170;-64
2023/12/03 00:24:24;;;;;;;0.00;0.00;;;;;;;;;;5021068;28;20045;-65
2023/12/03 00:26:50;;;;;;;33.72;16.48;;;;;;;;;;5022270;28;20658;-64
2023/12/03 00:29:16;;;;;;;58.47;27.48;;;;;;;;;;5017858;28;20099;-64
2023/12/03 00:31:42;;;;;;;38.45;19.80;;;;;;;;;;5010156;28;20973;-64
2023/12/03 00:34:08;;;;;;;0.00;0.00;;;;;;;;;;5017462;28;20037;-65
2023/12/03 00:36:34;;;;;;;0.00;0.00;;;;;;;;;;5016441;28;20084;-64
2023/12/03 00:39:00;;;;;;;0.00;0.00;;;;;;;;;;4998363;28;20120;-65
2023/12/03 00:41:26;;;;;;;0.00;0.00;;;;;;;;;;4996981;28;20574;-64
2023/12/03 00:43:52;;;;;;;0.00;0.00;;;;;;;;;;5007773;28;20041;-64
2023/12/03 00:46:21;;;;;;;0.00;0.00;;;;;;;;;;5002146;28;20367;-64
2023/12/03 00:48:48;;;;;;;0.00;0.00;;;;;;;;;;5007799;28;20693;-64
2023/12/03 00:51:14;;;;;;;0.00;0.00;;;;;;;;;;5016676;28;20861;-64
2023/12/03 00:53:41;;;;;;;0.00;0.00;;;;;;;;;;5028707;28;20049;-64
2023/12/03 00:56:08;;;;;;;0.00;0.00;;;;;;;;;;5013077;28;20037;-64
2023/12/03 00:58:34;;;;;;;0.00;0.00;;;;;;;;;;5020332;28;20057;-64
2023/12/03 01:01:00;;;;;;;0.00;0.00;;;;;;;;;;5017567;28;20331;-64
2023/12/03 01:03:25;;;;;;;0.00;0.00;;;;;;;;;;5018041;28;20033;-64
2023/12/03 01:05:52;;;;;;;0.00;0.00;;;;;;;;;;5017218;28;20040;-64
2023/12/03 01:08:18;;;;;;;0.00;0.00;;;;;;;;;;5011834;28;20087;-64
2023/12/03 01:10:44;;;;;;;0.00;0.00;;;;;;;;;;5006859;28;20041;-64
2023/12/03 01:13:10;;;;;;;0.00;0.00;;;;;;;;;;5013847;28;20385;-64
2023/12/03 01:15:35;;;;;;;0.00;0.00;;;;;;;;;;5020924;28;20057;-64
2023/12/03 01:18:01;;;;;;;48.53;24.50;;;;;;;;;;5018247;28;20061;-64
2023/12/03 01:20:27;;;;;;;72.22;30.70;;;;;;;;;;5022655;28;20034;-64
2023/12/03 01:22:54;;;;;;;69.95;31.58;;;;;;;;;;5019542;28;20038;-64
2023/12/03 01:25:20;;;;;;;68.88;31.95;;;;;;;;;;5018705;28;20068;-64
2023/12/03 01:27:46;;;;;;;71.57;30.88;;;;;;;;;;5021728;28;20057;-64
2023/12/03 01:30:12;;;;;;;69.60;31.88;;;;;;;;;;5012386;28;20393;-64
2023/12/03 01:32:38;;;;;;;73.53;32.88;;;;;;;;;;5017337;28;20053;-64
2023/12/03 01:35:04;;;;;;;73.35;32.22;;;;;;;;;;5003560;28;20037;-64
2023/12/03 01:37:30;;;;;;;70.00;32.75;;;;;;;;;;5015368;28;21227;-64
2023/12/03 01:39:56;;;;;;;71.75;32.70;;;;;;;;;;5015257;28;20035;-64
2023/12/03 01:42:24;;;;;;;70.45;32.70;;;;;;;;;;5015906;28;20351;-64
2023/12/03 01:44:50;;;;;;;70.30;33.40;;;;;;;;;;5028978;28;20060;-63
2023/12/03 01:47:17;;;;;;;68.95;31.88;;;;;;;;;;5019890;28;20064;-64
2023/12/03 01:49:44;;;;;;;71.95;32.80;;;;;;;;;;5018725;28;20038;-64
2023/12/03 01:52:10;;;;;;;65.88;31.70;;;;;;;;;;5017386;28;20557;-64
2023/12/03 01:54:37;;;;;;;68.05;31.23;;;;;;;;;;5016539;28;20041;-64
2023/12/03 01:57:03;;;;;;;69.50;32.25;;;;;;;;;;5008693;28;20128;-64
2023/12/03 01:59:30;;;;;;;66.15;32.47;;;;;;;;;;5013860;28;20095;-64
2023/12/03 02:01:57;;;;;;;68.70;32.33;;;;;;;;;;5018092;28;20042;-64
2023/12/03 02:04:23;;;;;;;66.82;32.35;;;;;;;;;;5010077;28;20389;-64
2023/12/03 02:06:49;;;;;;;71.20;32.25;;;;;;;;;;5012639;28;20072;-64
2023/12/03 02:09:16;;;;;;;69.90;32.38;;;;;;;;;;5024396;28;20732;-64
2023/12/03 02:11:43;;;;;;;73.85;34.33;;;;;;;;;;5022003;28;20468;-64
2023/12/03 02:14:09;;;;;;;69.03;31.50;;;;;;;;;;5018963;28;20502;-64
2023/12/03 02:16:35;;;;;;;66.95;32.65;;;;;;;;;;5021126;28;20431;-64
2023/12/03 02:19:02;;;;;;;71.15;33.15;;;;;;;;;;5020053;28;20624;-64
2023/12/03 02:21:28;;;;;;;63.97;31.63;;;;;;;;;;5012158;28;20050;-64
2023/12/03 02:23:54;;;;;;;69.25;32.47;;;;;;;;;;5012019;28;20116;-64
2023/12/03 02:26:20;;;;;;;67.32;30.90;;;;;;;;;;5020351;28;20033;-64
2023/12/03 02:28:47;;;;;;;67.70;31.65;;;;;;;;;;5019694;28;20046;-64
2023/12/03 02:31:14;;;;;;;68.28;31.90;;;;;;;;;;5022663;28;20049;-64
2023/12/03 02:33:41;;;;;;;60.88;30.10;;;;;;;;;;5017862;28;20120;-64
2023/12/03 02:36:07;;;;;;;62.05;30.80;;;;;;;;;;5007325;28;20109;-64
2023/12/03 02:38:34;;;;;;;65.43;30.55;;;;;;;;;;5006984;28;20041;-64
2023/12/03 02:41:00;;;;;;;64.25;30.42;;;;;;;;;;5023661;28;20041;-64
2023/12/03 02:43:26;;;;;;;62.88;31.05;;;;;;;;;;5021999;28;20054;-65
2023/12/03 02:45:51;;;;;;;60.47;29.33;;;;;;;;;;5024554;28;20503;-64
2023/12/03 02:48:17;;;;;;;64.93;30.80;;;;;;;;;;5026563;28;20049;-64
2023/12/03 02:50:43;;;;;;;65.68;29.83;;;;;;;;;;5025549;28;20056;-64
2023/12/03 02:53:09;;;;;;;64.45;29.33;;;;;;;;;;5020527;28;20502;-64
2023/12/03 02:55:35;;;;;;;62.70;29.40;;;;;;;;;;5025115;28;20033;-64
2023/12/03 02:58:01;;;;;;;61.78;29.48;;;;;;;;;;5020537;28;20057;-64
2023/12/03 03:00:27;;;;;;;63.15;29.25;;;;;;;;;;5016322;28;20045;-64
2023/12/03 03:02:54;;;;;;;62.28;28.80;;;;;;;;;;5024380;28;20033;-64
2023/12/03 03:05:21;;;;;;;58.95;28.00;;;;;;;;;;5021567;28;20033;-63
2023/12/03 03:07:47;;;;;;;60.25;28.35;;;;;;;;;;5006679;28;20040;-64
2023/12/03 03:10:13;;;;;;;54.80;26.73;;;;;;;;;;5009387;28;20137;-64
2023/12/03 03:12:39;;;;;;;60.15;26.52;;;;;;;;;;5014186;28;20037;-64
2023/12/03 03:15:05;;;;;;;52.53;25.42;;;;;;;;;;5018092;28;20114;-64
2023/12/03 03:17:31;;;;;;;53.30;25.20;;;;;;;;;;5014905;28;20029;-64
2023/12/03 03:19:57;;;;;;;53.22;26.30;;;;;;;;;;5025121;28;20709;-64
2023/12/03 03:22:23;;;;;;;52.53;25.42;;;;;;;;;;5023836;28;20116;-63
2023/12/03 03:24:49;;;;;;;53.90;26.08;;;;;;;;;;5020910;28;20056;-64
2023/12/03 03:27:15;;;;;;;52.15;25.17;;;;;;;;;;5018141;28;20132;-64
2023/12/03 03:29:40;;;;;;;26.58;17.95;;;;;;;;;;5017781;28;20449;-64
2023/12/03 03:32:07;;;;;;;48.72;24.88;;;;;;;;;;5019770;28;20126;-64
2023/12/03 03:34:33;;;;;;;53.10;24.77;;;;;;;;;;5019220;28;20064;-64
2023/12/03 03:36:58;;;;;;;46.58;24.10;;;;;;;;;;5017503;28;20029;-63
2023/12/03 03:39:24;;;;;;;51.33;23.67;;;;;;;;;;5018329;28;20033;-64
2023/12/03 03:41:50;;;;;;;47.83;24.20;;;;;;;;;;5014928;28;20041;-64
2023/12/03 03:44:16;;;;;;;48.88;23.80;;;;;;;;;;5020568;28;20038;-64
2023/12/03 03:46:42;;;;;;;48.83;24.55;;;;;;;;;;5016312;28;20034;-64
2023/12/03 03:49:09;;;;;;;46.25;23.70;;;;;;;;;;5021894;28;20029;-63
2023/12/03 03:51:35;;;;;;;45.80;22.77;;;;;;;;;;5020840;28;20132;-64
2023/12/03 03:54:01;;;;;;;48.95;22.42;;;;;;;;;;5019085;28;20480;-65
2023/12/03 03:56:27;;;;;;;48.28;22.60;;;;;;;;;;5009574;28;20038;-64
2023/12/03 03:58:53;;;;;;;45.15;22.52;;;;;;;;;;5015886;28;20430;-64
2023/12/03 04:01:19;;;;;;;47.75;22.95;;;;;;;;;;5025900;28;20029;-64
2023/12/03 04:03:45;;;;;;;43.58;22.80;;;;;;;;;;5008059;28;20047;-64
2023/12/03 04:06:11;;;;;;;39.70;21.27;;;;;;;;;;5016507;28;20034;-63
2023/12/03 04:08:37;;;;;;;44.33;22.10;;;;;;;;;;5013394;28;20029;-64
2023/12/03 04:11:04;;;;;;;47.58;22.27;;;;;;;;;;5017580;28;20037;-64
2023/12/03 04:13:30;;;;;;;44.17;22.70;;;;;;;;;;5018341;28;20036;-64
2023/12/03 04:15:57;;;;;;;38.92;20.63;;;;;;;;;;5016660;28;20539;-64
2023/12/03 04:18:23;;;;;;;44.25;21.17;;;;;;;;;;5014544;28;20052;-64
2023/12/03 04:20:49;;;;;;;43.88;22.52;;;;;;;;;;5016435;28;20045;-63
2023/12/03 04:23:15;;;;;;;44.05;22.08;;;;;;;;;;5016580;28;20034;-64
2023/12/03 04:25:41;;;;;;;42.00;20.48;;;;;;;;;;4999729;28;20081;-64
2023/12/03 04:28:07;;;;;;;45.78;20.83;;;;;;;;;;5021687;28;20489;-64
2023/12/03 04:30:33;;;;;;;33.80;18.67;;;;;;;;;;5003119;28;20049;-63
2023/12/03 04:32:59;;;;;;;39.67;19.95;;;;;;;;;;4999473;28;20168;-63
2023/12/03 04:35:25;;;;;;;44.38;20.83;;;;;;;;;;5013660;28;20030;-64
2023/12/03 04:37:51;;;;;;;41.60;20.95;;;;;;;;;;5020323;28;20501;-64
2023/12/03 04:40:17;;;;;;;44.92;21.58;;;;;;;;;;5013969;28;20464;-64
2023/12/03 04:42:43;;;;;;;42.83;20.45;;;;;;;;;;5012133;28;20428;-64
2023/12/03 04:45:09;;;;;;;37.28;19.92;;;;;;;;;;5010733;28;20038;-64
2023/12/03 04:47:35;;;;;;;41.00;20.42;;;;;;;;;;5001925;28;20041;-64
2023/12/03 04:50:01;;;;;;;39.58;19.40;;;;;;;;;;5011042;28;20034;-64
2023/12/03 04:52:27;;;;;;;42.90;20.60;;;;;;;;;;5019203;28;20501;-64
2023/12/03 04:54:53;;;;;;;42.05;20.15;;;;;;;;;;5011241;28;20038;-64
2023/12/03 04:57:19;;;;;;;42.05;20.20;;;;;;;;;;4998783;28;20058;-64
2023/12/03 04:59:45;;;;;;;39.00;19.88;;;;;;;;;;5004116;28;20057;-64
2023/12/03 05:02:11;;;;;;;41.55;20.27;;;;;;;;;;5015137;28;20378;-64
2023/12/03 05:04:37;;;;;;;40.13;20.33;;;;;;;;;;5017565;28;20642;-64
2023/12/03 05:07:03;;;;;;;39.28;19.73;;;;;;;;;;5010350;28;20041;-64
2023/12/03 05:09:29;;;;;;;39.65;19.85;;;;;;;;;;5009911;28;20080;-65
2023/12/03 05:11:55;;;;;;;38.35;20.83;;;;;;;;;;5015811;28;20537;-64
2023/12/03 05:14:21;;;;;;;38.42;19.38;;;;;;;;;;5015479;28;20061;-64
2023/12/03 05:16:47;;;;;;;36.55;19.75;;;;;;;;;;5016577;28;20133;-64
2023/12/03 05:19:13;;;;;;;37.42;19.23;;;;;;;;;;5008981;28;20033;-65
2023/12/03 05:21:39;;;;;;;39.85;19.23;;;;;;;;;;5005317;28;20076;-64
2023/12/03 05:24:06;;;;;;;36.28;18.55;;;;;;;;;;5006710;28;20128;-64
2023/12/03 05:26:31;;;;;;;36.60;18.30;;;;;;;;;;5009481;28;20038;-64
2023/12/03 05:28:57;;;;;;;37.65;18.23;;;;;;;;;;5009707;28;20038;-64
2023/12/03 05:31:23;;;;;;;36.15;17.80;;;;;;;;;;5013586;28;20046;-64
2023/12/03 05:33:49;;;;;;;34.50;17.75;;;;;;;;;;4998226;28;20128;-64
2023/12/03 05:36:23;;;;;;;36.28;18.35;;;;;;;;;;5012877;28;20038;-64
2023/12/03 05:38:49;;;;;;;38.00;18.40;;;;;;;;;;5007793;28;20060;-64
2023/12/03 05:41:15;;;;;;;35.75;17.95;;;;;;;;;;4994145;28;20591;-64
2023/12/03 05:43:41;;;;;;;38.50;19.00;;;;;;;;;;5014659;28;20517;-64
2023/12/03 05:46:07;;;;;;;37.80;18.38;;;;;;;;;;5004709;28;20034;-64
2023/12/03 05:48:33;;;;;;;34.95;17.70;;;;;;;;;;5000918;28;20109;-64
2023/12/03 05:50:59;;;;;;;33.60;18.05;;;;;;;;;;5017175;28;20030;-64
2023/12/03 05:53:25;;;;;;;34.65;18.05;;;;;;;;;;5007553;28;20052;-64
2023/12/03 05:55:51;;;;;;;38.78;19.67;;;;;;;;;;5025311;28;20120;-64
2023/12/03 05:58:17;;;;;;;36.80;18.23;;;;;;;;;;5018787;28;20067;-64
2023/12/03 06:00:43;;;;;;;37.03;17.55;;;;;;;;;;5020669;28;20030;-64
2023/12/03 06:03:09;;;;;;;34.63;17.30;;;;;;;;;;5026661;28;20387;-64
2023/12/03 06:05:35;;;;;;;36.30;17.58;;;;;;;;;;5018847;28;20689;-64
2023/12/03 06:08:01;;;;;;;34.63;17.17;;;;;;;;;;5019738;28;20041;-65
2023/12/03 06:10:27;;;;;;;36.53;17.05;;;;;;;;;;5019474;28;20030;-64
2023/12/03 06:12:53;;;;;;;33.47;16.42;;;;;;;;;;5011073;28;20030;-64
2023/12/03 06:15:19;;;;;;;35.22;17.30;;;;;;;;;;5010827;28;20037;-65
2023/12/03 06:17:45;;;;;;;35.40;17.48;;;;;;;;;;5022371;28;20025;-65
2023/12/03 06:20:11;;;;;;;36.63;18.50;;;;;;;;;;5011145;28;20616;-65
2023/12/03 06:22:37;;;;;;;38.70;18.02;;;;;;;;;;5008486;28;20030;-65
2023/12/03 06:25:03;;;;;;;36.95;18.20;;;;;;;;;;5015434;28;20032;-65
2023/12/03 06:27:29;;;;;;;36.38;17.98;;;;;;;;;;5002122;28;20502;-65
2023/12/03 06:29:55;;;;;;;35.45;18.38;;;;;;;;;;5004697;28;20026;-65
2023/12/03 06:32:21;;;;;;;33.90;16.90;;;;;;;;;;5014807;28;20038;-65
2023/12/03 06:34:48;;;;;;;39.20;18.25;;;;;;;;;;5019645;28;20095;-65
2023/12/03 06:37:14;;;;;;;37.97;17.95;;;;;;;;;;5021244;28;20041;-64
2023/12/03 06:39:40;;;;;;;39.63;18.58;;;;;;;;;;5005346;28;20051;-65
2023/12/03 06:42:06;;;;;;;35.25;18.20;;;;;;;;;;5010366;28;20266;-65
2023/12/03 06:44:32;;;;;;;36.10;17.88;;;;;;;;;;5014730;28;20034;-64
2023/12/03 06:46:58;;;;;;;35.83;18.50;;;;;;;;;;5022206;28;20044;-65
2023/12/03 06:49:24;;;;;;;35.53;18.45;;;;;;;;;;5016379;28;20049;-65
2023/12/03 06:51:51;;;;;;;36.70;17.48;;;;;;;;;;5019989;28;20132;-64
2023/12/03 06:54:17;;;;;;;35.95;18.50;;;;;;;;;;5011913;28;20531;-64
2023/12/03 06:56:43;;;;;;;37.67;17.77;;;;;;;;;;5018385;28;20041;-65
2023/12/03 06:59:10;;;;;;;39.35;17.85;;;;;;;;;;5012580;28;20452;-65
2023/12/03 07:01:36;;;;;;;36.75;17.98;;;;;;;;;;5020110;28;20128;-65
2023/12/03 07:04:02;;;;;;;29.48;15.70;;;;;;;;;;5018628;28;20604;-64
2023/12/03 07:06:28;;;;;;;35.13;17.13;;;;;;;;;;5019726;28;20049;-65
2023/12/03 07:08:54;;;;;;;34.05;17.48;;;;;;;;;;5015594;28;20033;-65
2023/12/03 07:11:20;;;;;;;31.02;16.02;;;;;;;;;;5022945;28;20041;-64
2023/12/03 07:13:47;;;;;;;32.97;17.23;;;;;;;;;;5017645;28;20042;-64
2023/12/03 07:16:13;;;;;;;32.97;16.98;;;;;;;;;;5023087;28;20064;-65
2023/12/03 07:18:43;;;;;;;34.88;17.10;;;;;;;;;;5011593;28;20033;-65
2023/12/03 07:21:09;;;;;;;35.88;16.55;;;;;;;;;;5009357;28;20069;-65
2023/12/03 07:23:35;;;;;;;36.30;17.60;;;;;;;;;;5010570;28;20636;-64
2023/12/03 07:26:01;;;;;;;35.25;18.10;;;;;;;;;;5018826;28;20106;-65
2023/12/03 07:28:27;;;;;;;35.40;17.17;;;;;;;;;;5021238;28;20041;-64
2023/12/03 07:30:53;;;;;;;34.00;17.42;;;;;;;;;;5019755;28;20044;-65
2023/12/03 07:33:19;;;;;;;34.40;17.08;;;;;;;;;;5014242;28;20553;-65
2023/12/03 07:35:45;;;;;;;34.38;17.98;;;;;;;;;;5012712;28;20394;-65
2023/12/03 07:38:11;;;;;;;38.33;19.50;;;;;;;;;;5010046;28;20033;-64
2023/12/03 07:40:37;;;;;;;37.30;18.65;;;;;;;;;;5019442;28;20532;-67
2023/12/03 07:43:03;;;;;;;36.80;17.92;;;;;;;;;;5014079;28;20046;-66
2023/12/03 07:45:29;;;;;;;35.67;18.40;;;;;;;;;;5037425;28;20072;-66
2023/12/03 07:47:55;;;;;;;34.80;15.95;;;;;;;;;;5012820;28;20064;-65
2023/12/03 07:50:21;;;;;;;31.63;17.33;;;;;;;;;;5019638;28;20037;-66
2023/12/03 07:52:46;;;;;;;34.70;17.58;;;;;;;;;;5020406;28;20353;-67
2023/12/03 07:55:12;;;;;;;28.80;15.55;;;;;;;;;;5019885;28;20041;-66
2023/12/03 07:57:38;;;;;;;28.45;15.30;;;;;;;;;;5018943;28;20045;-66
2023/12/03 08:00:06;;;;;;;29.77;15.85;;;;;;;;;;5019738;28;20123;-66
2023/12/03 08:02:32;;;;;;;31.85;15.93;;;;;;;;;;5020898;28;20026;-66
2023/12/03 08:04:58;;;;;;;30.17;15.30;;;;;;;;;;5013685;28;20216;-66
2023/12/03 08:07:24;;;;;;;32.00;15.15;;;;;;;;;;5008325;28;20049;-66
2023/12/03 08:09:51;;;;;;;28.08;15.15;;;;;;;;;;5021032;28;20029;-67
2023/12/03 08:12:17;;;;;;;28.90;14.82;;;;;;;;;;5008636;28;20698;-66
2023/12/03 08:14:43;;;;;;;27.95;14.85;;;;;;;;;;5012203;28;20060;-66
2023/12/03 08:17:12;;;;;;;26.90;14.02;;;;;;;;;;5011951;28;20041;-67
2023/12/03 08:19:38;;;;;;;26.45;13.85;;;;;;;;;;5020462;28;20030;-67
2023/12/03 08:22:04;;;;;;;28.35;15.00;;;;;;;;;;5019729;28;20405;-67
2023/12/03 08:24:30;;;;;;;31.23;16.48;;;;;;;;;;5018715;28;20053;-67
2023/12/03 08:26:56;;;;;;;28.02;15.23;;;;;;;;;;5013518;28;20037;-67
2023/12/03 08:29:22;;;;;;;28.35;15.30;;;;;;;;;;5017948;28;20048;-67
2023/12/03 08:31:49;;;;;;;31.25;15.35;;;;;;;;;;5014084;28;20505;-66
2023/12/03 08:34:16;;;;;;;31.52;15.93;;;;;;;;;;5014498;28;20048;-66
2023/12/03 08:36:42;;;;;;;31.58;16.27;;;;;;;;;;5018936;28;20041;-66
2023/12/03 08:39:08;;;;;;;28.08;15.35;;;;;;;;;;5015302;28;20187;-66
2023/12/03 08:41:36;;;;;;;30.08;14.65;;;;;;;;;;5007928;28;20048;-66
2023/12/03 08:44:02;;;;;;;27.83;14.55;;;;;;;;;;5018703;28;20064;-67
2023/12/03 08:46:28;;;;;;;29.20;14.73;;;;;;;;;;5007333;28;20132;-66
2023/12/03 08:48:54;;;;;;;29.98;14.98;;;;;;;;;;5019222;28;20170;-66
2023/12/03 08:51:20;;;;;;;26.60;14.07;;;;;;;;;;5010465;28;20030;-68
2023/12/03 08:53:46;;;;;;;25.02;14.23;;;;;;;;;;5017091;28;20033;-68
2023/12/03 08:56:13;;;;;;;28.42;14.35;;;;;;;;;;5015265;28;20144;-67
2023/12/03 08:58:40;;;;;;;27.52;14.18;;;;;;;;;;5020836;28;20129;-68
2023/12/03 09:01:07;;;;;;;26.45;14.40;;;;;;;;;;5015368;28;20026;-66
2023/12/03 09:03:33;;;;;;;27.05;14.88;;;;;;;;;;5017903;28;20116;-66
2023/12/03 09:05:59;;;;;;;27.73;14.75;;;;;;;;;;5011786;28;20351;-66
2023/12/03 09:08:25;;;;;;;28.38;15.27;;;;;;;;;;5013933;28;20044;-66
2023/12/03 09:10:51;;;;;;;27.80;14.77;;;;;;;;;;5021192;28;20489;-68
2023/12/03 09:13:17;;;;;;;29.88;15.73;;;;;;;;;;5013537;28;20037;-67
2023/12/03 09:15:43;;;;;;;28.38;14.60;;;;;;;;;;5018174;28;20049;-67
2023/12/03 09:18:09;;;;;;;29.15;14.45;;;;;;;;;;5018645;28;20033;-68
2023/12/03 09:20:35;;;;;;;27.02;13.95;;;;;;;;;;5010101;28;20037;-68
2023/12/03 09:23:01;;;;;;;28.08;13.70;;;;;;;;;;5009241;28;20160;-68
2023/12/03 09:25:27;;;;;;;24.55;13.55;;;;;;;;;;5013256;28;20040;-68
2023/12/03 09:27:53;;;;;;;26.02;13.10;;;;;;;;;;5016278;28;20044;-68
2023/12/03 09:30:19;;;;;;;24.02;13.57;;;;;;;;;;5005815;28;20482;-67
2023/12/03 09:32:46;;;;;;;26.30;14.25;;;;;;;;;;5015587;28;20040;-67
2023/12/03 09:35:12;;;;;;;27.65;13.43;;;;;;;;;;5012502;28;20053;-67
2023/12/03 09:37:38;;;;;;;24.73;12.65;;;;;;;;;;5017533;28;20428;-68
2023/12/03 09:40:05;;;;;;;25.40;12.73;;;;;;;;;;5015359;28;20091;-68
2023/12/03 09:42:33;;;;;;;27.77;13.82;;;;;;;;;;5013687;28;20603;-67
2023/12/03 09:45:09;;;;;;;24.08;12.95;;;;;;;;;;5018569;28;20050;-67
2023/12/03 09:47:36;;;;;;;27.10;12.85;;;;;;;;;;5021105;28;20044;-67
2023/12/03 09:50:04;;;;;;;27.77;13.18;;;;;;;;;;5015768;28;20050;-67
2023/12/03 09:52:31;;;;;;;27.45;14.10;;;;;;;;;;5015846;28;20113;-67
2023/12/03 09:55:00;;;;;;;28.35;12.82;;;;;;;;;;5016838;28;20041;-67
2023/12/03 09:57:30;;;;;;;22.45;12.63;;;;;;;;;;5015480;28;20056;-67
2023/12/03 10:00:00;;;;;;;24.73;13.40;;;;;;;;;;5014944;28;20032;-67
2023/12/03 10:02:28;;;;;;;24.98;13.45;;;;;;;;;;5020095;28;20743;-67
2023/12/03 10:04:55;;;;;;;26.73;13.45;;;;;;;;;;5022633;28;20060;-67
2023/12/03 10:07:22;;;;;;;24.80;13.32;;;;;;;;;;5012551;28;20045;-67
2023/12/03 10:09:49;;;;;;;27.42;13.80;;;;;;;;;;5011288;28;20049;-67
2023/12/03 10:12:17;;;;;;;23.27;13.80;;;;;;;;;;5020157;28;20090;-67
2023/12/03 10:14:45;;;;;;;24.73;13.05;;;;;;;;;;5015475;28;20128;-67
2023/12/03 10:17:18;;;;;;;26.27;13.23;;;;;;;;;;5013803;28;20041;-68
2023/12/03 10:19:44;;;;;;;26.23;13.32;;;;;;;;;;5018153;28;20365;-68
2023/12/03 10:22:10;;;;;;;25.15;13.38;;;;;;;;;;5005180;28;20037;-68
2023/12/03 10:24:54;;;;;;;23.10;13.02;;;;;;;;;;5015766;28;20048;-68
2023/12/03 10:27:20;;;;;;;23.23;13.25;;;;;;;;;;5014705;28;20029;-68
2023/12/03 10:29:46;;;;;;;26.98;13.77;;;;;;;;;;5014562;28;20083;-68
2023/12/03 10:32:12;;;;;;;25.20;12.93;;;;;;;;;;5015849;28;20568;-66
2023/12/03 10:34:43;;;;;;;24.55;12.77;;;;;;;;;;5011930;28;20550;-67
2023/12/03 10:37:09;;;;;;;24.40;12.35;;;;;;;;;;5010701;28;20107;-67
2023/12/03 10:39:37;;;;;;;26.15;13.27;;;;;;;;;;5021373;28;20165;-66
2023/12/03 10:42:03;;;;;;;22.75;12.77;;;;;;;;;;5017091;28;20084;-66
2023/12/03 10:44:30;;;;;;;25.40;13.40;;;;;;;;;;5008586;28;20045;-66
2023/12/03 10:46:57;;;;;;;25.38;12.68;;;;;;;;;;5019364;28;20192;-66
2023/12/03 10:49:25;;;;;;;25.33;12.88;;;;;;;;;;5012359;28;20125;-66
2023/12/03 10:51:55;;;;;;;24.30;12.50;;;;;;;;;;5018464;28;20042;-65
2023/12/03 10:54:21;;;;;;;23.45;12.13;;;;;;;;;;5015025;28;20107;-66
2023/12/03 10:56:49;;;;;;;26.40;13.70;;;;;;;;;;5019882;28;20440;-66
2023/12/03 10:59:16;;;;;;;22.92;12.88;;;;;;;;;;5017388;28;20045;-66
2023/12/03 11:01:47;;;;;;;26.30;12.85;;;;;;;;;;5017237;28;20143;-66
2023/12/03 11:04:28;;;;;;;24.10;13.32;;;;;;;;;;5016555;28;20038;-65
2023/12/03 11:06:55;;;;;;;27.05;16.27;;;;;;;;;;5017790;28;20128;-65
2023/12/03 11:09:21;;;;;;;24.08;13.88;;;;;;;;;;5018192;28;20049;-65
2023/12/03 11:11:48;;;;;;;25.23;13.30;;;;;;;;;;5009305;28;20054;-65
2023/12/03 11:14:15;;;;;;;26.60;15.77;;;;;;;;;;5016072;28;20088;-65
2023/12/03 11:16:47;;;;;;;27.33;15.25;;;;;;;;;;5007066;28;20045;-66
2023/12/03 11:19:16;;;;;;;25.40;13.53;;;;;;;;;;5011225;28;20237;-65
2023/12/03 11:21:52;;;;;;;24.75;12.93;;;;;;;;;;5009916;28;20276;-66
2023/12/03 11:24:20;;;;;;;25.30;13.27;;;;;;;;;;5012734;28;20686;-66
2023/12/03 11:26:47;;;;;;;24.75;13.40;;;;;;;;;;5015835;28;20042;-65
2023/12/03 11:29:13;;;;;;;24.30;13.10;;;;;;;;;;4999341;28;20591;-66
2023/12/03 11:31:38;;;;;;;25.10;13.50;;;;;;;;;;5012779;28;20124;-66
2023/12/03 11:34:05;;;;;;;24.90;13.27;;;;;;;;;;5020569;28;20676;-65
2023/12/03 11:36:43;;;;;;;24.10;13.20;;;;;;;;;;5016851;28;20489;-65
2023/12/03 11:39:08;;;;;;;23.55;12.10;;;;;;;;;;5013024;28;20227;-63
2023/12/03 11:41:38;;;;;;;25.10;12.00;;;;;;;;;;5014405;28;20072;-64
2023/12/03 11:44:19;;;;;;;25.00;12.85;;;;;;;;;;5013173;28;20068;-64
2023/12/03 11:47:00;;;;;;;22.23;11.90;;;;;;;;;;5015160;28;20042;-64
2023/12/03 11:49:28;;;;;;;24.83;12.77;;;;;;;;;;5011348;28;20519;-64
2023/12/03 11:51:54;;;;;;;23.27;12.60;;;;;;;;;;5017587;28;20127;-63
2023/12/03 11:54:47;;;;;;;28.02;13.75;;;;;;;;;;5011829;28;20096;-64
2023/12/03 11:57:14;;;;;;;24.20;12.80;;;;;;;;;;4999392;28;20128;-64
2023/12/03 11:59:41;;;;;;;23.45;12.52;;;;;;;;;;5014498;28;20765;-65
2023/12/03 12:02:07;;;;;;;23.65;12.10;;;;;;;;;;5015395;28;20044;-63
2023/12/03 12:04:32;;;;;;;25.35;13.10;;;;;;;;;;5028229;28;20045;-63
2023/12/03 12:06:58;;;;;;;24.85;12.32;;;;;;;;;;5014597;28;20536;-63
2023/12/03 12:09:24;;;;;;;21.67;11.68;;;;;;;;;;5010272;28;20453;-62
2023/12/03 12:11:51;;;;;;;23.45;12.13;;;;;;;;;;5013737;28;20065;-61
2023/12/03 12:14:18;;;;;;;22.33;12.15;;;;;;;;;;5008806;28;20038;-62
2023/12/03 12:16:45;;;;;;;27.10;12.75;;;;;;;;;;5017005;28;20153;-62
2023/12/03 12:19:11;;;;;;;24.60;12.10;;;;;;;;;;5012518;28;20033;-62
2023/12/03 12:21:50;;;;;;;25.48;11.88;;;;;;;;;;5000740;28;20038;-61
2023/12/03 12:24:16;;;;;;;21.75;11.80;;;;;;;;;;5016162;28;20124;-62
2023/12/03 12:26:42;;;;;;;18.23;10.27;;;;;;;;;;5015753;28;20046;-62
2023/12/03 12:29:08;;;;;;;21.00;11.40;;;;;;;;;;5020777;28;20037;-62
2023/12/03 12:31:34;;;;;;;25.13;11.23;;;;;;;;;;5018956;28;20265;-63
2023/12/03 12:34:00;;;;;;;21.17;12.05;;;;;;;;;;5017703;28;20033;-63
2023/12/03 12:36:26;;;;;;;22.92;12.52;;;;;;;;;;5021548;28;20022;-63
2023/12/03 12:38:52;;;;;;;23.52;12.18;;;;;;;;;;5013385;28;20551;-62
2023/12/03 12:41:19;;;;;;;24.30;12.40;;;;;;;;;;5013354;28;20038;-63
2023/12/03 12:43:55;;;;;;;21.92;11.43;;;;;;;;;;5016020;28;20099;-64
2023/12/03 12:46:21;;;;;;;23.58;12.27;;;;;;;;;;5017413;28;20048;-62
2023/12/03 12:48:48;;;;;;;23.05;10.73;;;;;;;;;;5015232;28;20502;-63
2023/12/03 12:51:21;;;;;;;22.35;11.57;;;;;;;;;;5010312;28;20568;-62
2023/12/03 12:53:47;;;;;;;;;;;;;;;;;;5014974;28;20029;-63
2023/12/03 12:56:13;;;;;;;22.60;11.70;;;;;;;;;;5019035;28;19917;-62
2023/12/03 12:58:40;;;;;;;24.05;13.02;;;;;;;;;;5022888;28;20041;-63
2023/12/03 13:01:06;;;;;;;21.10;11.30;;;;;;;;;;5015557;28;20087;-64
2023/12/03 13:03:33;;;;;;;25.85;13.00;;;;;;;;;;5017071;28;20557;-63
2023/12/03 13:05:59;;;;;;;44.88;25.85;;;;;;;;;;5011915;28;20117;-64
2023/12/03 13:08:25;;;;;;;22.48;12.27;;;;;;;;;;5016963;28;20037;-62
2023/12/03 13:10:51;;;;;;;22.58;12.05;;;;;;;;;;5011096;28;20056;-63
2023/12/03 13:13:17;;;;;;;21.80;12.70;;;;;;;;;;5010287;28;20037;-65
2023/12/03 13:15:43;;;;;;;22.60;13.23;;;;;;;;;;5016755;28;20462;-65
2023/12/03 13:18:09;;;;;;;26.45;13.80;;;;;;;;;;5018794;28;20056;-65
2023/12/03 13:20:35;;;;;;;25.60;13.27;;;;;;;;;;5005296;28;20030;-65
2023/12/03 13:23:01;;;;;;;24.02;13.45;;;;;;;;;;4999474;28;20097;-65
2023/12/03 13:25:26;;;;;;;26.08;13.35;;;;;;;;;;5009376;28;20025;-64
2023/12/03 13:27:53;;;;;;;21.27;11.82;;;;;;;;;;5012252;28;20172;-65
2023/12/03 13:30:19;;;;;;;22.58;13.05;;;;;;;;;;5013272;28;20344;-64
2023/12/03 13:32:45;;;;;;;22.85;12.95;;;;;;;;;;5009726;28;20041;-65
2023/12/03 13:35:15;;;;;;;24.48;13.38;;;;;;;;;;5012432;28;20688;-65
2023/12/03 13:37:43;;;;;;;24.98;13.23;;;;;;;;;;5004884;28;20038;-65
2023/12/03 13:40:09;;;;;;;22.23;12.23;;;;;;;;;;5012310;28;20029;-64
2023/12/03 13:42:36;;;;;;;22.33;12.60;;;;;;;;;;5014659;28;20045;-64
2023/12/03 13:45:06;;;;;;;19.67;11.75;;;;;;;;;;5012673;28;20068;-65
2023/12/03 13:47:33;;;;;;;17.58;9.60;;;;;;;;;;5012284;28;20117;-64
2023/12/03 13:50:03;;;;;;;17.33;10.90;;;;;;;;;;5009357;28;20502;-64
2023/12/03 13:52:29;;;;;;;17.42;9.70;;;;;;;;;;5014425;28;20045;-64
2023/12/03 13:54:56;;;;;;;17.48;9.95;;;;;;;;;;5001111;28;20034;-64
2023/12/03 13:57:22;;;;;;;19.08;10.30;;;;;;;;;;5005805;28;20048;-64
2023/12/03 13:59:49;;;;;;;16.70;10.13;;;;;;;;;;4998019;28;20041;-64
2023/12/03 14:02:15;;;;;;;20.20;10.00;;;;;;;;;;4998251;28;20044;-64
2023/12/03 14:04:40;;;;;;;18.50;11.05;;;;;;;;;;5013763;28;20029;-64
2023/12/03 14:07:07;;;;;;;16.63;9.75;;;;;;;;;;5019831;28;20041;-64
2023/12/03 14:09:33;;;;;;;17.95;10.43;;;;;;;;;;5010479;28;20045;-65
2023/12/03 14:12:01;;;;;;;17.10;10.57;;;;;;;;;;5016947;28;20351;-64
2023/12/03 14:14:27;;;;;;;17.63;10.75;;;;;;;;;;5022218;28;20041;-64